Time;durP1;ratioP1;P1;durP2;ratioP2;P2;SDS_P1;SDS_P2;PMS_P1;PMS_P2;Temp;Humidity;BMP_temperature;BMP_pressure;BME280_temperature;BME280_humidity;BME280_pressure;Samples;Min_cycle;Max_cycle;Signal;HPM_P1;HPM_P2
2022/03/13 00:02:07;;;;;;;7.70;4.80;;;;;;;;;;4980369;28;20065;-50
2022/03/13 00:04:32;;;;;;;7.78;5.10;;;;;;;;;;4982200;28;20034;-50
2022/03/13 00:06:58;;;;;;;8.73;5.00;;;;;;;;;;4982277;28;20610;-50
2022/03/13 00:09:25;;;;;;;7.35;4.53;;;;;;;;;;4982301;28;20273;-50
2022/03/13 00:11:52;;;;;;;8.13;4.85;;;;;;;;;;4982517;28;20023;-50
2022/03/13 00:14:19;;;;;;;9.30;5.28;;;;;;;;;;4982389;28;20033;-50
2022/03/13 00:16:44;;;;;;;7.93;4.60;;;;;;;;;;4981473;28;20542;-50
2022/03/13 00:19:11;;;;;;;7.53;5.18;;;;;;;;;;4982485;28;20502;-51
2022/03/13 00:21:36;;;;;;;9.05;5.50;;;;;;;;;;4976540;28;20034;-52
2022/03/13 00:24:01;;;;;;;7.50;5.00;;;;;;;;;;4972959;28;20038;-51
2022/03/13 00:26:26;;;;;;;8.33;5.00;;;;;;;;;;4982832;28;20029;-51
2022/03/13 00:28:52;;;;;;;8.00;4.87;;;;;;;;;;4982589;28;20285;-51
2022/03/13 00:31:17;;;;;;;9.52;5.15;;;;;;;;;;4982821;28;20846;-51
2022/03/13 00:33:43;;;;;;;7.83;5.27;;;;;;;;;;4982929;28;20464;-51
2022/03/13 00:36:08;;;;;;;6.55;4.72;;;;;;;;;;4982487;28;20668;-51
2022/03/13 00:38:33;;;;;;;8.00;5.20;;;;;;;;;;4981443;28;20524;-49
2022/03/13 00:40:58;;;;;;;8.93;5.28;;;;;;;;;;4980652;28;20018;-50
2022/03/13 00:43:25;;;;;;;7.40;5.00;;;;;;;;;;4972607;28;20033;-51
2022/03/13 00:45:50;;;;;;;7.82;4.97;;;;;;;;;;5001943;28;20272;-51
2022/03/13 00:48:15;;;;;;;8.57;5.13;;;;;;;;;;5002181;28;20025;-51
2022/03/13 00:50:41;;;;;;;8.27;4.88;;;;;;;;;;4986825;28;20013;-50
2022/03/13 00:53:06;;;;;;;8.70;5.57;;;;;;;;;;4981028;28;20082;-51
2022/03/13 00:55:32;;;;;;;7.78;4.88;;;;;;;;;;4982029;28;20038;-50
2022/03/13 00:57:57;;;;;;;8.77;5.63;;;;;;;;;;4982571;28;20026;-51
2022/03/13 01:00:22;;;;;;;8.23;5.25;;;;;;;;;;4982262;28;20505;-51
2022/03/13 01:02:48;;;;;;;9.77;5.45;;;;;;;;;;4980797;28;20042;-51
2022/03/13 01:05:15;;;;;;;7.68;4.55;;;;;;;;;;4982025;28;20088;-50
2022/03/13 01:07:40;;;;;;;8.27;4.93;;;;;;;;;;4981026;28;20030;-51
2022/03/13 01:10:06;;;;;;;7.77;4.90;;;;;;;;;;4982348;28;20532;-50
2022/03/13 01:12:31;;;;;;;8.90;5.10;;;;;;;;;;4981977;28;20265;-51
2022/03/13 01:14:56;;;;;;;6.93;4.70;;;;;;;;;;4981573;28;20088;-51
2022/03/13 01:17:21;;;;;;;7.97;4.97;;;;;;;;;;4981973;28;20283;-51
2022/03/13 01:19:47;;;;;;;7.93;4.90;;;;;;;;;;4980873;28;20033;-51
2022/03/13 01:22:12;;;;;;;8.43;5.55;;;;;;;;;;4971155;28;20026;-51
2022/03/13 01:24:43;;;;;;;8.60;5.37;;;;;;;;;;4976999;28;20057;-51
2022/03/13 01:27:08;;;;;;;9.77;5.20;;;;;;;;;;4984190;28;20301;-50
2022/03/13 01:29:34;;;;;;;8.02;4.97;;;;;;;;;;4986024;28;20112;-50
2022/03/13 01:32:00;;;;;;;7.90;5.20;;;;;;;;;;4986124;28;20124;-50
2022/03/13 01:34:35;;;;;;;8.85;4.82;;;;;;;;;;4984673;28;20026;-51
2022/03/13 01:37:00;;;;;;;8.63;5.35;;;;;;;;;;4985584;28;20494;-51
2022/03/13 01:39:25;;;;;;;9.07;5.38;;;;;;;;;;4985761;28;20102;-51
2022/03/13 01:41:50;;;;;;;7.33;5.03;;;;;;;;;;4977734;28;20459;-50
2022/03/13 01:44:18;;;;;;;7.90;4.97;;;;;;;;;;4978155;28;20595;-50
2022/03/13 01:46:43;;;;;;;7.43;5.00;;;;;;;;;;4985559;28;20031;-52
2022/03/13 01:49:09;;;;;;;7.82;5.40;;;;;;;;;;4985636;28;20041;-51
2022/03/13 01:51:34;;;;;;;8.93;5.50;;;;;;;;;;4985315;28;20332;-51
2022/03/13 01:54:01;;;;;;;9.57;5.05;;;;;;;;;;4985414;28;20809;-50
2022/03/13 01:56:27;;;;;;;7.85;5.38;;;;;;;;;;4985734;28;20088;-51
2022/03/13 01:58:52;;;;;;;7.17;4.60;;;;;;;;;;4985226;28;20042;-49
2022/03/13 02:01:18;;;;;;;7.55;4.82;;;;;;;;;;4980504;28;20280;-50
2022/03/13 02:03:44;;;;;;;7.97;5.20;;;;;;;;;;4980179;28;20048;-51
2022/03/13 02:06:09;;;;;;;8.15;4.60;;;;;;;;;;5004848;28;20025;-51
2022/03/13 02:08:35;;;;;;;7.47;4.80;;;;;;;;;;5005427;28;20033;-51
2022/03/13 02:11:00;;;;;;;7.30;4.75;;;;;;;;;;4987068;28;20015;-51
2022/03/13 02:13:26;;;;;;;8.45;4.93;;;;;;;;;;4985278;28;20124;-52
2022/03/13 02:15:52;;;;;;;8.10;4.93;;;;;;;;;;4985123;28;20022;-51
2022/03/13 02:18:18;;;;;;;7.72;4.60;;;;;;;;;;4985113;28;20042;-51
2022/03/13 02:20:43;;;;;;;7.43;4.93;;;;;;;;;;4985516;28;20031;-51
2022/03/13 02:23:16;;;;;;;7.30;4.30;;;;;;;;;;4971296;28;20126;-51
2022/03/13 02:25:41;;;;;;;7.70;4.95;;;;;;;;;;5004774;28;20030;-49
2022/03/13 02:28:06;;;;;;;8.77;5.30;;;;;;;;;;5004701;28;20247;-51
2022/03/13 02:30:31;;;;;;;7.87;4.87;;;;;;;;;;4990944;28;20281;-51
2022/03/13 02:32:56;;;;;;;7.63;5.33;;;;;;;;;;4984818;28;20340;-51
2022/03/13 02:35:22;;;;;;;7.07;4.30;;;;;;;;;;4984712;28;20296;-52
2022/03/13 02:37:47;;;;;;;8.30;5.17;;;;;;;;;;4984347;28;20034;-51
2022/03/13 02:40:22;;;;;;;6.85;4.38;;;;;;;;;;4985126;28;20281;-51
2022/03/13 02:42:48;;;;;;;7.15;4.55;;;;;;;;;;4969455;28;20031;-50
2022/03/13 02:45:32;;;;;;;7.85;5.10;;;;;;;;;;4985914;28;20064;-51
2022/03/13 02:48:00;;;;;;;7.82;4.78;;;;;;;;;;5004266;28;20017;-53
2022/03/13 02:50:26;;;;;;;7.28;4.75;;;;;;;;;;4991482;28;20438;-51
2022/03/13 02:52:51;;;;;;;7.40;4.50;;;;;;;;;;4984361;28;20033;-52
2022/03/13 02:55:16;;;;;;;7.07;4.57;;;;;;;;;;4984345;28;20038;-50
2022/03/13 02:57:42;;;;;;;6.50;4.57;;;;;;;;;;4984354;28;20352;-52
2022/03/13 03:00:08;;;;;;;7.73;4.50;;;;;;;;;;4984397;28;20030;-52
2022/03/13 03:02:34;;;;;;;8.18;4.72;;;;;;;;;;4984466;28;20065;-51
2022/03/13 03:05:00;;;;;;;7.38;4.93;;;;;;;;;;4983858;28;20034;-51
2022/03/13 03:07:25;;;;;;;7.50;4.80;;;;;;;;;;4984290;28;20014;-52
2022/03/13 03:09:50;;;;;;;7.47;4.67;;;;;;;;;;4984071;28;20034;-50
2022/03/13 03:12:15;;;;;;;8.10;4.77;;;;;;;;;;4984223;28;20440;-50
2022/03/13 03:14:41;;;;;;;7.13;4.70;;;;;;;;;;4983989;28;20288;-50
2022/03/13 03:17:06;;;;;;;8.33;4.97;;;;;;;;;;4983486;28;20553;-50
2022/03/13 03:19:31;;;;;;;7.28;4.45;;;;;;;;;;4984261;28;20815;-50
2022/03/13 03:21:57;;;;;;;8.20;4.53;;;;;;;;;;4983716;28;20406;-50
2022/03/13 03:24:23;;;;;;;8.05;4.97;;;;;;;;;;4983736;28;20031;-51
2022/03/13 03:26:48;;;;;;;8.98;4.72;;;;;;;;;;4983870;28;20022;-51
2022/03/13 03:29:13;;;;;;;8.80;4.78;;;;;;;;;;4983203;28;20092;-51
2022/03/13 03:31:40;;;;;;;7.40;4.80;;;;;;;;;;4982451;28;20473;-51
2022/03/13 03:34:07;;;;;;;7.70;4.88;;;;;;;;;;4983486;28;20160;-50
2022/03/13 03:36:33;;;;;;;7.78;5.00;;;;;;;;;;4983859;28;20130;-50
2022/03/13 03:38:58;;;;;;;7.72;4.60;;;;;;;;;;4983366;28;20023;-50
2022/03/13 03:41:23;;;;;;;7.83;4.90;;;;;;;;;;4979883;28;20025;-50
2022/03/13 03:43:48;;;;;;;7.23;4.47;;;;;;;;;;4979261;28;20292;-50
2022/03/13 03:46:16;;;;;;;7.07;4.80;;;;;;;;;;5002857;28;20355;-50
2022/03/13 03:48:41;;;;;;;7.57;4.80;;;;;;;;;;5002721;28;21121;-51
2022/03/13 03:51:06;;;;;;;7.17;4.53;;;;;;;;;;4984244;28;20066;-51
2022/03/13 03:53:31;;;;;;;6.77;4.40;;;;;;;;;;4983286;28;20379;-50
2022/03/13 03:55:58;;;;;;;7.63;4.60;;;;;;;;;;4983217;28;20265;-51
2022/03/13 03:58:23;;;;;;;8.80;5.35;;;;;;;;;;4983047;28;20269;-48
2022/03/13 04:00:48;;;;;;;7.23;4.40;;;;;;;;;;4983371;28;20421;-50
2022/03/13 04:03:14;;;;;;;7.83;5.10;;;;;;;;;;4966337;28;20428;-50
2022/03/13 04:05:39;;;;;;;8.07;4.97;;;;;;;;;;4982919;28;20765;-49
2022/03/13 04:08:04;;;;;;;7.28;4.90;;;;;;;;;;4983244;28;20478;-50
2022/03/13 04:10:29;;;;;;;7.35;4.93;;;;;;;;;;4983027;28;20040;-50
2022/03/13 04:12:55;;;;;;;8.33;4.70;;;;;;;;;;4983093;28;20026;-49
2022/03/13 04:15:20;;;;;;;8.27;5.57;;;;;;;;;;4982920;28;20269;-50
2022/03/13 04:17:45;;;;;;;7.03;4.63;;;;;;;;;;4983231;28;20269;-51
2022/03/13 04:20:10;;;;;;;7.53;4.75;;;;;;;;;;4983358;28;20273;-51
2022/03/13 04:22:36;;;;;;;7.95;5.10;;;;;;;;;;4968806;28;20498;-50
2022/03/13 04:25:01;;;;;;;8.77;4.70;;;;;;;;;;4997583;28;20044;-50
2022/03/13 04:27:27;;;;;;;7.90;5.18;;;;;;;;;;5002495;28;20014;-50
2022/03/13 04:29:53;;;;;;;8.63;4.93;;;;;;;;;;4994314;28;20137;-51
2022/03/13 04:32:22;;;;;;;7.43;4.60;;;;;;;;;;4982996;28;20018;-51
2022/03/13 04:34:48;;;;;;;8.07;4.40;;;;;;;;;;4982449;28;20278;-51
2022/03/13 04:37:16;;;;;;;7.60;4.67;;;;;;;;;;4981352;28;20045;-53
2022/03/13 04:39:41;;;;;;;7.60;4.70;;;;;;;;;;4982314;28;20281;-51
2022/03/13 04:42:06;;;;;;;6.40;4.47;;;;;;;;;;4973052;28;20027;-51
2022/03/13 04:44:32;;;;;;;7.80;4.55;;;;;;;;;;5004395;28;20033;-51
2022/03/13 04:46:57;;;;;;;7.35;4.78;;;;;;;;;;4984334;28;20018;-50
2022/03/13 04:49:23;;;;;;;7.35;4.53;;;;;;;;;;4998593;28;20110;-51
2022/03/13 04:51:48;;;;;;;6.78;4.55;;;;;;;;;;4982386;28;20050;-51
2022/03/13 04:54:13;;;;;;;7.43;4.72;;;;;;;;;;4980909;28;20047;-50
2022/03/13 04:56:39;;;;;;;7.50;4.10;;;;;;;;;;4982617;28;20130;-50
2022/03/13 04:59:05;;;;;;;7.47;4.50;;;;;;;;;;4980727;28;20293;-51
2022/03/13 05:01:30;;;;;;;5.90;4.20;;;;;;;;;;4982172;28;20113;-51
2022/03/13 05:03:55;;;;;;;7.07;4.50;;;;;;;;;;4982323;28;20097;-50
2022/03/13 05:06:21;;;;;;;7.43;4.80;;;;;;;;;;4982358;28;20289;-50
2022/03/13 05:08:47;;;;;;;6.63;4.37;;;;;;;;;;4982479;28;20084;-51
2022/03/13 05:11:12;;;;;;;7.03;4.53;;;;;;;;;;4981821;28;20023;-51
2022/03/13 05:13:37;;;;;;;7.17;4.67;;;;;;;;;;4982407;28;20022;-51
2022/03/13 05:16:03;;;;;;;7.77;4.73;;;;;;;;;;4981867;28;20273;-51
2022/03/13 05:18:29;;;;;;;6.78;4.13;;;;;;;;;;4982396;28;20057;-51
2022/03/13 05:20:54;;;;;;;6.57;4.28;;;;;;;;;;4982537;28;20026;-51
2022/03/13 05:23:19;;;;;;;7.43;4.43;;;;;;;;;;4968878;28;20033;-52
2022/03/13 05:25:45;;;;;;;6.25;4.38;;;;;;;;;;5001986;28;20021;-51
2022/03/13 05:28:10;;;;;;;7.40;5.15;;;;;;;;;;5002715;28;20026;-51
2022/03/13 05:30:36;;;;;;;6.78;4.20;;;;;;;;;;4989466;28;20023;-51
2022/03/13 05:33:01;;;;;;;7.68;4.93;;;;;;;;;;4986643;28;20022;-50
2022/03/13 05:35:27;;;;;;;6.47;3.95;;;;;;;;;;4987064;28;20019;-50
2022/03/13 05:37:52;;;;;;;8.05;4.53;;;;;;;;;;4978606;28;20037;-52
2022/03/13 05:40:18;;;;;;;10.82;4.80;;;;;;;;;;4990242;28;20537;-50
2022/03/13 05:42:47;;;;;;;6.60;4.25;;;;;;;;;;4971797;28;20027;-50
2022/03/13 05:45:13;;;;;;;6.57;4.10;;;;;;;;;;4983903;28;20542;-49
2022/03/13 05:47:45;;;;;;;7.78;4.82;;;;;;;;;;4984580;28;20114;-50
2022/03/13 05:50:11;;;;;;;6.50;4.57;;;;;;;;;;4984955;28;20036;-51
2022/03/13 05:52:36;;;;;;;7.88;4.60;;;;;;;;;;4982893;28;20026;-51
2022/03/13 05:55:01;;;;;;;8.03;4.57;;;;;;;;;;4981078;28;20157;-51
2022/03/13 05:57:26;;;;;;;8.57;4.50;;;;;;;;;;4981388;28;20265;-50
2022/03/13 05:59:51;;;;;;;7.40;4.23;;;;;;;;;;4981052;28;20799;-51
2022/03/13 06:02:25;;;;;;;6.90;4.57;;;;;;;;;;4980508;28;20680;-53
2022/03/13 06:04:52;;;;;;;6.00;4.05;;;;;;;;;;4980453;28;20038;-50
2022/03/13 06:07:18;;;;;;;6.95;4.40;;;;;;;;;;4979427;28;20066;-50
2022/03/13 06:09:43;;;;;;;6.50;4.22;;;;;;;;;;4976942;28;20101;-51
2022/03/13 06:12:09;;;;;;;7.83;4.20;;;;;;;;;;4963435;28;20645;-51
2022/03/13 06:14:34;;;;;;;6.30;4.40;;;;;;;;;;4966867;28;20778;-51
2022/03/13 06:16:59;;;;;;;7.27;4.50;;;;;;;;;;4964789;28;20022;-51
2022/03/13 06:19:24;;;;;;;6.37;3.90;;;;;;;;;;4975745;28;20254;-50
2022/03/13 06:21:50;;;;;;;7.37;4.30;;;;;;;;;;4965215;28;20022;-55
2022/03/13 06:24:17;;;;;;;6.53;3.90;;;;;;;;;;4981796;28;20305;-51
2022/03/13 06:26:42;;;;;;;6.82;4.22;;;;;;;;;;4983483;28;20026;-49
2022/03/13 06:29:07;;;;;;;5.83;4.03;;;;;;;;;;4983877;28;20114;-50
2022/03/13 06:31:32;;;;;;;6.73;4.40;;;;;;;;;;4981628;28;20258;-50
2022/03/13 06:33:58;;;;;;;7.10;4.50;;;;;;;;;;4973448;28;20285;-50
2022/03/13 06:36:23;;;;;;;5.95;4.28;;;;;;;;;;4970965;28;20266;-51
2022/03/13 06:38:48;;;;;;;6.65;4.03;;;;;;;;;;4983781;28;20065;-52
2022/03/13 06:41:14;;;;;;;7.85;4.72;;;;;;;;;;4982531;28;20022;-51
2022/03/13 06:43:39;;;;;;;6.93;4.03;;;;;;;;;;4983698;28;20388;-51
2022/03/13 06:46:05;;;;;;;5.78;4.03;;;;;;;;;;4969895;28;20027;-51
2022/03/13 06:48:31;;;;;;;7.45;4.53;;;;;;;;;;4975989;28;20727;-50
2022/03/13 06:50:56;;;;;;;6.90;4.60;;;;;;;;;;4980219;28;20068;-50
2022/03/13 06:53:22;;;;;;;6.35;3.90;;;;;;;;;;4982580;28;20049;-51
2022/03/13 06:55:47;;;;;;;7.97;4.37;;;;;;;;;;4984190;28;20073;-51
2022/03/13 06:58:12;;;;;;;6.80;4.10;;;;;;;;;;4984274;28;20065;-51
2022/03/13 07:00:37;;;;;;;7.13;4.23;;;;;;;;;;4984274;28;20461;-51
2022/03/13 07:03:03;;;;;;;6.27;4.30;;;;;;;;;;4967783;28;20305;-51
2022/03/13 07:05:28;;;;;;;5.70;3.90;;;;;;;;;;4983651;28;20278;-50
2022/03/13 07:07:54;;;;;;;7.00;4.38;;;;;;;;;;4983764;28;20274;-51
2022/03/13 07:10:20;;;;;;;6.20;4.07;;;;;;;;;;4983666;28;20749;-51
2022/03/13 07:12:46;;;;;;;6.68;4.47;;;;;;;;;;4983942;28;20022;-52
2022/03/13 07:15:12;;;;;;;5.18;3.70;;;;;;;;;;4983425;28;20022;-52
2022/03/13 07:17:38;;;;;;;5.57;3.85;;;;;;;;;;4984154;28;20525;-51
2022/03/13 07:20:04;;;;;;;6.03;4.35;;;;;;;;;;4983771;28;20037;-51
2022/03/13 07:22:29;;;;;;;6.30;4.05;;;;;;;;;;4976187;28;20029;-50
2022/03/13 07:24:54;;;;;;;5.83;3.90;;;;;;;;;;4981915;28;20038;-50
2022/03/13 07:27:19;;;;;;;6.03;4.20;;;;;;;;;;4974521;28;20506;-50
2022/03/13 07:29:44;;;;;;;7.13;4.50;;;;;;;;;;4971111;28;20268;-51
2022/03/13 07:32:10;;;;;;;5.30;3.87;;;;;;;;;;4980566;28;20019;-51
2022/03/13 07:34:35;;;;;;;6.30;4.18;;;;;;;;;;4983345;28;20313;-50
2022/03/13 07:37:00;;;;;;;6.15;3.92;;;;;;;;;;4982200;28;20493;-49
2022/03/13 07:39:27;;;;;;;6.47;3.90;;;;;;;;;;4969071;28;20041;-50
2022/03/13 07:41:56;;;;;;;6.18;4.40;;;;;;;;;;4976317;28;20022;-51
2022/03/13 07:44:22;;;;;;;6.38;3.75;;;;;;;;;;4974906;28;20038;-51
2022/03/13 07:46:47;;;;;;;7.25;4.10;;;;;;;;;;4983242;28;20098;-52
2022/03/13 07:49:12;;;;;;;5.60;4.20;;;;;;;;;;4982485;28;20027;-53
2022/03/13 07:51:37;;;;;;;5.80;3.90;;;;;;;;;;4980999;28;20028;-51
2022/03/13 07:54:03;;;;;;;6.07;3.77;;;;;;;;;;4982290;28;20332;-51
2022/03/13 07:56:29;;;;;;;6.07;4.50;;;;;;;;;;4982366;28;20030;-51
2022/03/13 07:58:54;;;;;;;5.47;3.97;;;;;;;;;;4982551;28;20096;-50
2022/03/13 08:01:19;;;;;;;6.00;3.65;;;;;;;;;;4980361;28;20030;-51
2022/03/13 08:03:45;;;;;;;5.57;4.25;;;;;;;;;;4982004;28;20505;-51
2022/03/13 08:06:11;;;;;;;6.65;4.30;;;;;;;;;;4974776;28;20109;-52
2022/03/13 08:08:36;;;;;;;6.07;4.13;;;;;;;;;;4981073;28;20018;-51
2022/03/13 08:11:01;;;;;;;7.77;4.33;;;;;;;;;;4980171;28;20030;-56
2022/03/13 08:13:27;;;;;;;6.32;4.25;;;;;;;;;;4982221;28;20278;-51
2022/03/13 08:15:52;;;;;;;6.07;3.93;;;;;;;;;;4976150;28;20089;-52
2022/03/13 08:18:17;;;;;;;5.97;4.30;;;;;;;;;;4965972;28;20274;-52
2022/03/13 08:20:43;;;;;;;6.53;4.15;;;;;;;;;;4961378;28;20018;-50
2022/03/13 08:23:08;;;;;;;6.30;3.80;;;;;;;;;;4960700;28;20510;-53
2022/03/13 08:25:34;;;;;;;5.97;4.13;;;;;;;;;;4963784;28;20030;-51
2022/03/13 08:27:59;;;;;;;5.22;3.97;;;;;;;;;;4963442;28;20272;-51
2022/03/13 08:30:25;;;;;;;5.75;4.32;;;;;;;;;;4971397;28;20054;-51
2022/03/13 08:32:50;;;;;;;6.17;4.47;;;;;;;;;;4977860;28;20105;-51
2022/03/13 08:35:16;;;;;;;6.35;4.05;;;;;;;;;;4968000;28;20814;-52
2022/03/13 08:37:42;;;;;;;6.65;4.20;;;;;;;;;;4982432;28;20026;-53
2022/03/13 08:40:08;;;;;;;5.67;4.27;;;;;;;;;;4982257;28;20480;-52
2022/03/13 08:42:33;;;;;;;7.10;4.30;;;;;;;;;;4969852;28;20019;-52
2022/03/13 08:44:59;;;;;;;7.20;4.80;;;;;;;;;;4994630;28;20100;-50
2022/03/13 08:47:24;;;;;;;6.63;4.53;;;;;;;;;;5001665;28;20080;-50
2022/03/13 08:49:50;;;;;;;6.68;4.35;;;;;;;;;;4995264;28;20019;-51
2022/03/13 08:52:15;;;;;;;6.88;4.55;;;;;;;;;;4982399;28;20057;-52
2022/03/13 08:54:40;;;;;;;6.60;4.63;;;;;;;;;;4979035;28;20129;-52
2022/03/13 08:57:06;;;;;;;6.60;4.87;;;;;;;;;;4981161;28;20121;-50
2022/03/13 08:59:34;;;;;;;6.57;4.70;;;;;;;;;;4968070;28;20281;-51
2022/03/13 09:01:59;;;;;;;7.18;4.00;;;;;;;;;;4975736;28;20816;-50
2022/03/13 09:04:25;;;;;;;7.10;4.70;;;;;;;;;;4978963;28;20065;-50
2022/03/13 09:06:51;;;;;;;6.80;4.32;;;;;;;;;;4981851;28;20331;-50
2022/03/13 09:09:18;;;;;;;7.80;4.88;;;;;;;;;;4981762;28;20026;-50
2022/03/13 09:11:45;;;;;;;7.43;5.20;;;;;;;;;;4982221;28;20705;-51
2022/03/13 09:14:11;;;;;;;6.50;4.32;;;;;;;;;;4981096;28;20073;-51
2022/03/13 09:16:38;;;;;;;7.78;4.95;;;;;;;;;;4980157;28;20035;-51
2022/03/13 09:19:03;;;;;;;7.00;4.80;;;;;;;;;;4982000;28;20113;-51
2022/03/13 09:21:31;;;;;;;8.30;5.10;;;;;;;;;;4982155;28;20109;-50
2022/03/13 09:23:56;;;;;;;6.25;4.60;;;;;;;;;;4982303;28;20396;-50
2022/03/13 09:26:23;;;;;;;8.35;4.70;;;;;;;;;;4978325;28;20544;-50
2022/03/13 09:28:48;;;;;;;6.93;4.97;;;;;;;;;;4978592;28;20088;-51
2022/03/13 09:31:13;;;;;;;8.30;5.55;;;;;;;;;;4979956;28;20816;-48
2022/03/13 09:33:39;;;;;;;9.57;5.37;;;;;;;;;;4981947;28;20030;-51
2022/03/13 09:36:04;;;;;;;10.43;4.80;;;;;;;;;;4980494;28;20022;-50
2022/03/13 09:38:29;;;;;;;9.13;5.27;;;;;;;;;;4982390;28;20034;-50
2022/03/13 09:40:55;;;;;;;9.40;5.70;;;;;;;;;;4981905;28;20307;-50
2022/03/13 09:43:21;;;;;;;8.63;4.95;;;;;;;;;;4966108;28;20031;-50
2022/03/13 09:45:47;;;;;;;9.05;5.22;;;;;;;;;;4981139;28;20716;-50
2022/03/13 09:48:15;;;;;;;8.25;5.18;;;;;;;;;;4984184;28;20014;-50
2022/03/13 09:50:41;;;;;;;9.18;5.60;;;;;;;;;;4984869;28;20058;-51
2022/03/13 09:53:06;;;;;;;8.20;5.18;;;;;;;;;;4983270;28;20089;-51
2022/03/13 09:55:32;;;;;;;10.07;5.53;;;;;;;;;;4985256;28;20030;-50
2022/03/13 09:57:57;;;;;;;8.38;5.60;;;;;;;;;;4985481;28;20023;-50
2022/03/13 10:00:23;;;;;;;8.23;4.97;;;;;;;;;;4985609;28;20030;-51
2022/03/13 10:02:50;;;;;;;8.00;4.78;;;;;;;;;;4970956;28;20066;-51
2022/03/13 10:05:16;;;;;;;8.23;5.30;;;;;;;;;;5001008;28;20034;-50
2022/03/13 10:07:54;;;;;;;8.80;5.38;;;;;;;;;;5005498;28;20532;-51
2022/03/13 10:10:20;;;;;;;7.13;4.70;;;;;;;;;;4994529;28;20144;-51
2022/03/13 10:12:46;;;;;;;8.52;5.25;;;;;;;;;;4984326;28;20109;-51
2022/03/13 10:15:12;;;;;;;8.57;5.07;;;;;;;;;;4985335;28;20038;-50
2022/03/13 10:17:38;;;;;;;8.77;4.95;;;;;;;;;;4985653;28;20030;-51
2022/03/13 10:20:17;;;;;;;8.23;5.13;;;;;;;;;;4985660;28;20034;-50
2022/03/13 10:22:48;;;;;;;7.63;4.90;;;;;;;;;;4972018;28;20486;-51
2022/03/13 10:25:15;;;;;;;7.28;4.70;;;;;;;;;;4982899;28;20038;-50
2022/03/13 10:27:40;;;;;;;8.90;5.07;;;;;;;;;;4985397;28;20031;-51
2022/03/13 10:30:09;;;;;;;8.90;5.22;;;;;;;;;;4985145;28;20033;-51
2022/03/13 10:32:35;;;;;;;7.35;5.13;;;;;;;;;;4984832;28;20034;-51
2022/03/13 10:35:01;;;;;;;8.00;4.93;;;;;;;;;;4985215;28;20038;-50
2022/03/13 10:37:33;;;;;;;8.23;5.10;;;;;;;;;;4985309;28;20080;-50
2022/03/13 10:40:07;;;;;;;8.27;5.18;;;;;;;;;;4985351;28;20030;-51
2022/03/13 10:42:32;;;;;;;8.48;4.97;;;;;;;;;;4971480;28;20141;-50
2022/03/13 10:44:58;;;;;;;6.65;4.47;;;;;;;;;;4994783;28;20128;-50
2022/03/13 10:47:25;;;;;;;7.25;4.90;;;;;;;;;;5004210;28;20041;-51
2022/03/13 10:49:52;;;;;;;6.75;4.75;;;;;;;;;;4996787;28;20026;-52
2022/03/13 10:52:29;;;;;;;8.10;5.20;;;;;;;;;;4983865;28;20472;-51
2022/03/13 10:54:54;;;;;;;7.50;4.88;;;;;;;;;;4984923;28;20052;-51
2022/03/13 10:57:19;;;;;;;7.80;4.80;;;;;;;;;;4984950;28;20034;-51
2022/03/13 10:59:45;;;;;;;7.35;4.63;;;;;;;;;;4984433;28;20046;-51
2022/03/13 11:02:14;;;;;;;7.65;4.90;;;;;;;;;;4975987;28;20054;-50
2022/03/13 11:04:49;;;;;;;6.57;4.57;;;;;;;;;;4990636;28;20100;-52
2022/03/13 11:07:15;;;;;;;9.98;4.90;;;;;;;;;;5003783;28;20735;-52
2022/03/13 11:09:40;;;;;;;6.25;4.35;;;;;;;;;;4999239;28;20053;-52
2022/03/13 11:12:09;;;;;;;7.33;4.63;;;;;;;;;;4984555;28;20470;-50
2022/03/13 11:14:34;;;;;;;7.20;4.78;;;;;;;;;;4984621;28;20301;-52
2022/03/13 11:17:00;;;;;;;8.13;4.32;;;;;;;;;;4983089;28;20457;-52
2022/03/13 11:19:25;;;;;;;7.80;4.60;;;;;;;;;;4984393;28;20030;-51
2022/03/13 11:21:50;;;;;;;7.93;4.80;;;;;;;;;;4976960;28;20023;-52
2022/03/13 11:24:15;;;;;;;7.97;5.07;;;;;;;;;;4984291;28;20188;-52
2022/03/13 11:26:42;;;;;;;8.48;5.00;;;;;;;;;;5003911;28;20307;-51
2022/03/13 11:29:10;;;;;;;20.85;6.80;;;;;;;;;;4991998;28;20062;-50
2022/03/13 11:31:37;;;;;;;17.48;5.30;;;;;;;;;;4984300;28;20046;-53
2022/03/13 11:34:09;;;;;;;12.13;5.22;;;;;;;;;;4984165;28;20025;-51
2022/03/13 11:36:34;;;;;;;10.27;4.68;;;;;;;;;;4983750;28;20391;-53
2022/03/13 11:39:01;;;;;;;10.55;4.63;;;;;;;;;;4983884;28;20033;-52
2022/03/13 11:41:36;;;;;;;7.90;4.68;;;;;;;;;;4981868;28;20038;-51
2022/03/13 11:44:16;;;;;;;14.23;5.78;;;;;;;;;;4979709;28;20026;-51
2022/03/13 11:46:43;;;;;;;9.38;4.82;;;;;;;;;;5008919;28;20589;-52
2022/03/13 11:49:26;;;;;;;11.32;5.50;;;;;;;;;;5008733;28;20036;-51
2022/03/13 11:52:11;;;;;;;11.38;5.25;;;;;;;;;;4990073;28;20022;-51
2022/03/13 11:54:55;;;;;;;8.15;4.28;;;;;;;;;;4988464;28;20502;-51
2022/03/13 11:57:21;;;;;;;10.90;5.03;;;;;;;;;;4987223;28;20045;-52
2022/03/13 11:59:49;;;;;;;8.65;4.60;;;;;;;;;;4988011;28;20382;-51
2022/03/13 12:02:34;;;;;;;8.13;4.90;;;;;;;;;;4977018;28;20034;-51
2022/03/13 12:05:17;;;;;;;6.80;4.32;;;;;;;;;;4980847;28;20030;-52
2022/03/13 12:07:56;;;;;;;9.93;4.95;;;;;;;;;;4984159;28;20018;-53
2022/03/13 12:10:30;;;;;;;9.45;4.80;;;;;;;;;;4983054;28;20038;-55
2022/03/13 12:13:03;;;;;;;9.07;4.53;;;;;;;;;;4982003;28;20018;-50
2022/03/13 12:15:28;;;;;;;8.75;4.60;;;;;;;;;;4981737;28;20057;-50
2022/03/13 12:17:55;;;;;;;8.83;4.13;;;;;;;;;;4982639;28;20049;-51
2022/03/13 12:20:22;;;;;;;7.75;4.53;;;;;;;;;;4982105;28;20332;-50
2022/03/13 12:22:53;;;;;;;8.07;4.30;;;;;;;;;;4981421;28;20081;-51
2022/03/13 12:25:21;;;;;;;8.93;4.30;;;;;;;;;;4981772;28;20026;-52
2022/03/13 12:27:46;;;;;;;9.43;4.05;;;;;;;;;;4964560;28;20574;-51
2022/03/13 12:30:12;;;;;;;7.43;4.27;;;;;;;;;;4981837;28;20023;-51
2022/03/13 12:32:37;;;;;;;7.32;4.65;;;;;;;;;;4981536;28;20030;-51
2022/03/13 12:35:03;;;;;;;9.50;4.83;;;;;;;;;;4981725;28;20022;-52
2022/03/13 12:37:28;;;;;;;7.85;4.72;;;;;;;;;;4974776;28;20756;-52
2022/03/13 12:39:55;;;;;;;7.70;4.63;;;;;;;;;;4964949;28;20416;-52
2022/03/13 12:42:24;;;;;;;7.60;4.15;;;;;;;;;;4962644;28;20114;-52
2022/03/13 12:45:00;;;;;;;8.43;4.35;;;;;;;;;;4968673;28;20038;-51
2022/03/13 12:47:27;;;;;;;7.95;4.50;;;;;;;;;;4965496;28;20042;-54
2022/03/13 12:49:56;;;;;;;7.47;4.30;;;;;;;;;;4964122;28;20137;-52
2022/03/13 12:52:21;;;;;;;7.60;4.53;;;;;;;;;;4963143;28;20026;-52
2022/03/13 12:54:46;;;;;;;7.80;4.23;;;;;;;;;;4964355;28;20166;-52
2022/03/13 12:57:12;;;;;;;7.10;4.57;;;;;;;;;;4966905;28;20153;-54
2022/03/13 12:59:40;;;;;;;8.43;4.40;;;;;;;;;;4972065;28;20109;-50
2022/03/13 13:02:14;;;;;;;8.85;3.90;;;;;;;;;;4962172;28;20066;-52
2022/03/13 13:05:06;;;;;;;8.82;4.50;;;;;;;;;;4961199;28;20030;-51
2022/03/13 13:07:32;;;;;;;9.40;4.07;;;;;;;;;;4962865;28;20279;-53
2022/03/13 13:09:58;;;;;;;10.55;5.50;;;;;;;;;;4961590;28;20026;-52
2022/03/13 13:12:27;;;;;;;6.45;4.30;;;;;;;;;;4962639;28;20122;-50
2022/03/13 13:14:52;;;;;;;10.68;4.53;;;;;;;;;;4975804;28;20442;-52
2022/03/13 13:17:24;;;;;;;9.38;4.65;;;;;;;;;;4961295;28;20034;-50
2022/03/13 13:19:50;;;;;;;7.72;4.20;;;;;;;;;;4962666;28;20042;-53
2022/03/13 13:22:17;;;;;;;11.40;4.97;;;;;;;;;;4964074;28;20534;-52
2022/03/13 13:24:56;;;;;;;7.57;4.18;;;;;;;;;;4977895;28;20054;-50
2022/03/13 13:27:34;;;;;;;9.23;4.13;;;;;;;;;;4980468;28;20023;-51
2022/03/13 13:30:21;;;;;;;9.50;4.43;;;;;;;;;;4966077;28;20029;-51
2022/03/13 13:32:50;;;;;;;8.80;4.40;;;;;;;;;;4970397;28;20022;-52
2022/03/13 13:35:46;;;;;;;9.73;5.05;;;;;;;;;;4966688;28;20454;-50
2022/03/13 13:38:15;;;;;;;10.07;4.60;;;;;;;;;;4985204;28;20027;-52
2022/03/13 13:40:41;;;;;;;12.00;4.63;;;;;;;;;;4985988;28;20034;-51
2022/03/13 13:43:09;;;;;;;8.40;4.35;;;;;;;;;;4981822;28;20045;-51
2022/03/13 13:45:36;;;;;;;11.27;5.28;;;;;;;;;;4985687;28;20038;-53
2022/03/13 13:48:17;;;;;;;10.98;5.22;;;;;;;;;;4985537;28;20026;-53
2022/03/13 13:50:43;;;;;;;12.80;4.28;;;;;;;;;;4985258;28;20030;-50
2022/03/13 13:53:09;;;;;;;8.40;4.75;;;;;;;;;;4985538;28;20133;-51
2022/03/13 13:55:37;;;;;;;9.83;4.30;;;;;;;;;;4983702;28;20156;-51
2022/03/13 13:58:12;;;;;;;8.88;4.65;;;;;;;;;;4985442;28;20364;-52
2022/03/13 14:00:39;;;;;;;9.48;5.00;;;;;;;;;;4980206;28;20509;-51
2022/03/13 14:03:04;;;;;;;9.40;4.60;;;;;;;;;;4976985;28;20049;-51
2022/03/13 14:05:31;;;;;;;11.33;4.80;;;;;;;;;;4978295;28;20038;-51
2022/03/13 14:07:57;;;;;;;9.32;4.55;;;;;;;;;;4976588;28;20331;-52
2022/03/13 14:10:22;;;;;;;9.70;4.73;;;;;;;;;;4976906;28;20026;-51
2022/03/13 14:12:49;;;;;;;10.30;4.30;;;;;;;;;;4977163;28;20117;-52
2022/03/13 14:15:14;;;;;;;10.55;4.80;;;;;;;;;;4977448;28;20811;-51
2022/03/13 14:17:40;;;;;;;9.27;4.30;;;;;;;;;;4976793;28;20157;-51
2022/03/13 14:20:06;;;;;;;12.15;4.88;;;;;;;;;;4977144;28;20052;-51
2022/03/13 14:22:33;;;;;;;9.30;4.55;;;;;;;;;;4976584;28;20010;-51
2022/03/13 14:24:58;;;;;;;10.48;4.97;;;;;;;;;;4976157;28;20026;-53
2022/03/13 14:27:23;;;;;;;8.55;4.32;;;;;;;;;;4977346;28;20018;-52
2022/03/13 14:29:49;;;;;;;12.23;5.00;;;;;;;;;;4977083;28;20040;-52
2022/03/13 14:32:14;;;;;;;13.60;4.77;;;;;;;;;;4976087;28;20031;-51
2022/03/13 14:34:39;;;;;;;11.32;4.93;;;;;;;;;;4975387;28;20363;-51
2022/03/13 14:37:04;;;;;;;13.43;4.93;;;;;;;;;;4976659;28;20027;-52
2022/03/13 14:39:29;;;;;;;10.47;4.50;;;;;;;;;;4976603;28;20113;-52